Time;durP1;ratioP1;P1;durP2;ratioP2;P2;SDS_P1;SDS_P2;PMS_P1;PMS_P2;Temp;Humidity;BMP_temperature;BMP_pressure;BME280_temperature;BME280_humidity;BME280_pressure;Samples;Min_cycle;Max_cycle;Signal;HPM_P1;HPM_P2
2023/12/14 12:07:07;;;;;;;11.07;9.00;;;;;;;5.87;100.00;101901.72;5227121;28;1329369;-69
2023/12/14 12:09:42;;;;;;;10.80;9.60;;;;;;;5.76;100.00;101895.94;5237852;28;20036;-68
2023/12/14 12:12:13;;;;;;;12.70;9.87;;;;;;;5.78;100.00;101902.78;5241113;28;20580;-70
2023/12/14 12:14:52;;;;;;;11.77;9.73;;;;;;;5.91;100.00;101897.31;5237617;28;20053;-73
2023/12/14 12:17:23;;;;;;;11.07;9.77;;;;;;;5.87;100.00;101903.47;5240300;28;20031;-70
2023/12/14 12:19:54;;;;;;;12.40;11.10;;;;;;;5.76;100.00;101899.38;5242385;28;20030;-69
2023/12/14 12:22:26;;;;;;;12.80;9.47;;;;;;;6.08;100.00;101907.34;5244162;28;20029;-70
2023/12/14 12:24:58;;;;;;;11.47;10.03;;;;;;;6.08;100.00;101901.28;5240922;28;20025;-68
2023/12/14 12:27:29;;;;;;;11.37;9.50;;;;;;;6.10;100.00;101902.13;5240444;28;20025;-68
2023/12/14 12:30:00;;;;;;;10.93;9.67;;;;;;;6.19;100.00;101914.91;5251774;28;20369;-68
2023/12/14 12:32:32;;;;;;;12.30;9.97;;;;;;;6.02;100.00;101910.06;5250428;28;20065;-70
2023/12/14 12:35:03;;;;;;;10.10;8.97;;;;;;;6.18;100.00;101918.38;5251407;28;20041;-68
2023/12/14 12:37:35;;;;;;;10.83;8.70;;;;;;;6.17;100.00;101927.09;5250590;28;20086;-68
2023/12/14 12:40:07;;;;;;;9.70;8.57;;;;;;;6.01;100.00;101926.56;5245531;28;20061;-70
2023/12/14 12:42:39;;;;;;;10.07;8.47;;;;;;;5.86;100.00;101923.44;5234590;28;20108;-68
2023/12/14 12:45:10;;;;;;;10.37;9.20;;;;;;;6.12;100.00;101931.53;5216481;28;20116;-68
2023/12/14 12:47:42;;;;;;;10.93;9.30;;;;;;;6.07;100.00;101944.66;5241436;28;20034;-68
2023/12/14 12:50:13;;;;;;;11.50;9.23;;;;;;;6.07;100.00;101936.00;5236032;28;20041;-68
2023/12/14 12:52:48;;;;;;;9.67;8.07;;;;;;;6.17;100.00;101937.50;5230269;28;20017;-68
2023/12/14 12:55:19;;;;;;;8.50;7.38;;;;;;;6.24;100.00;101941.66;5212499;28;20030;-68
2023/12/14 12:57:51;;;;;;;10.90;8.40;;;;;;;6.33;100.00;101944.94;5223496;28;20056;-69
2023/12/14 13:00:22;;;;;;;9.37;8.13;;;;;;;6.15;100.00;101936.66;5244122;28;20052;-68
2023/12/14 13:02:54;;;;;;;11.00;8.90;;;;;;;6.35;100.00;101945.75;5236475;28;20026;-69
2023/12/14 13:05:25;;;;;;;10.17;8.53;;;;;;;6.47;100.00;101947.19;5229517;28;20136;-68
2023/12/14 13:07:57;;;;;;;9.57;8.57;;;;;;;6.36;100.00;101934.44;5229922;28;20421;-68
2023/12/14 13:10:28;;;;;;;11.67;9.07;;;;;;;6.47;100.00;101947.19;5235286;28;20064;-68
2023/12/14 13:13:00;;;;;;;9.17;8.23;;;;;;;6.47;100.00;101936.78;5230105;28;20642;-68
2023/12/14 13:15:31;;;;;;;13.47;9.13;;;;;;;6.28;100.00;101956.28;5235249;28;20051;-70
2023/12/14 13:18:02;;;;;;;10.07;8.37;;;;;;;6.50;100.00;101962.72;5201219;28;20110;-69
2023/12/14 13:20:34;;;;;;;9.67;8.67;;;;;;;6.26;100.00;101965.91;5215597;28;20056;-67
2023/12/14 13:23:05;;;;;;;11.57;8.27;;;;;;;6.44;100.00;101973.31;5222908;28;20112;-70
2023/12/14 13:25:36;;;;;;;10.67;7.87;;;;;;;6.45;100.00;101975.00;5231068;28;20087;-81
2023/12/14 13:28:08;;;;;;;8.97;8.07;;;;;;;6.30;100.00;101977.09;5235685;28;20029;-70
2023/12/14 13:30:40;;;;;;;9.80;8.17;;;;;;;6.43;100.00;101977.66;5236127;28;20061;-70
2023/12/14 13:33:12;;;;;;;9.67;8.40;;;;;;;6.38;100.00;101974.31;5222732;28;20099;-70
2023/12/14 13:35:43;;;;;;;12.57;9.70;;;;;;;6.49;100.00;101982.69;5217680;28;20029;-69
2023/12/14 13:38:14;;;;;;;10.07;8.93;;;;;;;6.52;100.00;101982.66;5223021;28;20097;-68
2023/12/14 13:40:46;;;;;;;10.80;9.80;;;;;;;6.53;100.00;101988.69;5227173;28;20040;-70
2023/12/14 13:43:17;;;;;;;10.17;9.13;;;;;;;6.54;100.00;101993.00;5223260;28;20036;-70
2023/12/14 13:45:52;;;;;;;10.73;9.63;;;;;;;6.39;100.00;101987.28;5227578;28;20076;-71
2023/12/14 13:48:28;;;;;;;12.20;8.83;;;;;;;6.47;100.00;101991.44;5195789;28;20252;-70
2023/12/14 13:50:59;;;;;;;14.77;9.87;;;;;;;6.44;100.00;102004.53;5217438;28;20033;-69
2023/12/14 13:53:30;;;;;;;13.57;10.37;;;;;;;6.55;100.00;102012.94;5212599;28;20465;-69
2023/12/14 13:56:02;;;;;;;11.97;10.77;;;;;;;6.46;100.00;102014.00;5213089;28;20434;-70
2023/12/14 13:58:37;;;;;;;13.47;10.50;;;;;;;6.60;100.00;102010.22;5212845;28;20024;-68
2023/12/14 14:01:08;;;;;;;11.98;9.65;;;;;;;6.59;100.00;102008.50;5213086;28;20037;-68
2023/12/14 14:03:41;;;;;;;11.67;9.53;;;;;;;6.67;100.00;102016.97;5224086;28;20370;-69
2023/12/14 14:06:13;;;;;;;13.30;9.40;;;;;;;6.52;100.00;101998.25;5213255;28;20079;-66
2023/12/14 14:08:44;;;;;;;11.77;9.53;;;;;;;6.67;100.00;102011.78;5211005;28;20042;-66
2023/12/14 14:11:15;;;;;;;10.93;9.77;;;;;;;6.55;100.00;102012.94;5219642;28;20112;-65
2023/12/14 14:13:47;;;;;;;13.13;9.70;;;;;;;6.53;100.00;102015.56;5221282;28;20045;-66
2023/12/14 14:16:18;;;;;;;10.73;9.47;;;;;;;6.72;100.00;102024.69;5221962;28;20125;-67
2023/12/14 14:18:49;;;;;;;10.97;9.60;;;;;;;6.67;100.00;102026.56;5208492;28;20072;-67
2023/12/14 14:21:21;;;;;;;12.10;9.43;;;;;;;6.54;100.00;102040.69;5220383;28;20084;-67
2023/12/14 14:23:52;;;;;;;11.10;8.93;;;;;;;6.53;100.00;102045.94;5218014;28;20030;-67
2023/12/14 14:26:23;;;;;;;12.83;10.00;;;;;;;6.54;100.00;102048.50;5231939;28;20089;-68
2023/12/14 14:28:59;;;;;;;11.83;10.27;;;;;;;6.57;100.00;102057.16;5232771;28;20439;-67
2023/12/14 14:31:32;;;;;;;14.53;10.60;;;;;;;6.46;100.00;102050.44;5232608;28;20084;-69
2023/12/14 14:34:05;;;;;;;16.77;10.77;;;;;;;6.52;100.00;102063.34;5214593;28;20534;-74
2023/12/14 14:36:36;;;;;;;10.63;9.53;;;;;;;6.47;100.00;102059.97;5214816;28;20677;-72
2023/12/14 14:39:08;;;;;;;11.93;9.13;;;;;;;6.47;100.00;102059.97;5232735;28;20211;-74
2023/12/14 14:41:39;;;;;;;12.40;11.00;;;;;;;6.42;100.00;102064.44;5232607;28;20045;-73
2023/12/14 14:44:11;;;;;;;15.40;11.10;;;;;;;6.36;100.00;102060.22;5232911;28;20036;-74
2023/12/14 14:46:43;;;;;;;13.13;9.93;;;;;;;6.41;100.00;102075.72;5215120;28;20484;-73
2023/12/14 14:49:14;;;;;;;11.87;10.67;;;;;;;6.41;100.00;102093.94;5232808;28;20022;-74
2023/12/14 14:51:45;;;;;;;12.03;9.93;;;;;;;6.52;100.00;102094.56;5232572;28;20388;-71
2023/12/14 14:54:17;;;;;;;12.17;10.30;;;;;;;6.39;100.00;102095.69;5232542;28;20029;-73
2023/12/14 14:56:48;;;;;;;11.83;10.10;;;;;;;6.44;100.00;102099.06;5226102;28;20030;-72
2023/12/14 14:59:19;;;;;;;11.33;9.77;;;;;;;6.32;100.00;102101.97;5224131;28;20037;-72
2023/12/14 15:01:51;;;;;;;10.83;9.73;;;;;;;6.43;100.00;102096.50;5226925;28;20540;-72
2023/12/14 15:04:22;;;;;;;11.40;9.77;;;;;;;6.40;100.00;102102.63;5211070;28;20018;-72
2023/12/14 17:25:34;;;;;;;19.35;14.48;;;;;;;6.14;100.00;102268.78;5224042;28;20045;-74
2023/12/14 17:28:05;;;;;;;18.20;14.57;;;;;;;6.10;100.00;102276.66;5223983;28;20444;-74
2023/12/14 17:30:39;;;;;;;24.97;14.33;;;;;;;6.10;100.00;102271.47;5223643;28;20029;-75
2023/12/14 17:33:12;;;;;;;21.07;15.33;;;;;;;6.11;100.00;102274.03;5224452;28;20033;-73
2023/12/14 17:35:43;;;;;;;22.23;14.10;;;;;;;6.12;100.00;102278.38;5200699;28;20125;-73
2023/12/14 17:38:14;;;;;;;20.97;15.50;;;;;;;6.17;100.00;102275.69;5204196;28;20117;-73
2023/12/14 17:40:45;;;;;;;16.47;13.53;;;;;;;6.16;100.00;102273.97;5224704;28;20026;-72
2023/12/14 17:43:17;;;;;;;15.47;13.17;;;;;;;6.16;100.00;102276.56;5204769;28;20060;-72
2023/12/14 17:45:48;;;;;;;20.27;13.60;;;;;;;6.13;100.00;102276.59;5205827;28;20068;-72
2023/12/14 17:48:19;;;;;;;22.60;13.90;;;;;;;6.14;100.00;102276.56;5225305;28;20113;-71
2023/12/14 17:50:50;;;;;;;19.40;14.07;;;;;;;5.98;100.00;102280.31;5217761;28;20048;-72
2023/12/14 17:53:22;;;;;;;21.90;13.73;;;;;;;6.15;100.00;102288.72;5214727;28;20033;-72
2023/12/14 17:55:54;;;;;;;17.20;13.47;;;;;;;6.12;100.00;102287.91;5213569;28;20018;-67
2023/12/14 17:58:26;;;;;;;18.37;14.60;;;;;;;6.07;100.00;102281.94;5221247;28;20038;-68
2023/12/14 18:00:57;;;;;;;18.20;13.40;;;;;;;6.05;100.00;102285.44;5227002;28;20374;-68
2023/12/14 18:03:29;;;;;;;18.60;14.40;;;;;;;6.09;100.00;102290.56;5223991;28;20823;-80
2023/12/14 18:06:01;;;;;;;21.77;15.37;;;;;;;6.05;100.00;102280.22;5220982;28;20034;-76
2023/12/14 18:08:32;;;;;;;19.10;13.03;;;;;;;6.08;100.00;102287.09;5228396;28;20037;-73
2023/12/14 18:11:03;;;;;;;17.23;13.70;;;;;;;6.12;100.00;102293.13;5204870;28;20022;-77
2023/12/14 18:13:35;;;;;;;19.20;13.63;;;;;;;6.13;100.00;102287.88;5216786;28;20104;-77
2023/12/14 18:16:06;;;;;;;18.67;13.63;;;;;;;6.11;100.00;102291.41;5209733;28;20133;-74
2023/12/14 18:18:38;;;;;;;21.87;14.73;;;;;;;6.14;100.00;102288.75;5225406;28;20244;-74
2023/12/14 18:21:09;;;;;;;17.83;12.57;;;;;;;6.09;100.00;102295.78;5199134;28;20033;-72
2023/12/14 18:23:40;;;;;;;18.67;14.27;;;;;;;6.12;100.00;102307.00;5209304;28;20060;-75
2023/12/14 18:26:11;;;;;;;18.43;14.10;;;;;;;6.14;100.00;102310.41;5215044;28;20033;-71
2023/12/14 18:28:43;;;;;;;21.70;14.37;;;;;;;6.02;100.00;102295.84;5222397;28;20037;-71
2023/12/14 18:31:14;;;;;;;19.30;13.07;;;;;;;6.09;100.00;102307.00;5219999;28;20112;-72
2023/12/14 18:33:51;;;;;;;21.70;14.80;;;;;;;6.10;100.00;102321.75;5222748;28;20468;-72
2023/12/14 18:36:23;;;;;;;22.97;13.93;;;;;;;5.99;100.00;102316.69;5204002;28;20503;-71
2023/12/14 18:38:54;;;;;;;20.60;13.37;;;;;;;6.12;100.00;102335.59;5201007;28;20025;-72
2023/12/14 18:41:26;;;;;;;18.73;13.20;;;;;;;6.10;100.00;102339.97;5214022;28;20026;-74
2023/12/14 18:43:57;;;;;;;16.37;13.30;;;;;;;6.04;100.00;102347.81;5213261;28;20065;-72
2023/12/14 18:46:29;;;;;;;19.10;13.40;;;;;;;6.11;100.00;102352.06;5201137;28;20117;-71
2023/12/14 18:49:00;;;;;;;20.30;14.40;;;;;;;6.09;100.00;102353.00;5220826;28;20670;-71
2023/12/14 18:51:31;;;;;;;20.00;13.03;;;;;;;6.01;100.00;102347.88;5222221;28;20369;-73
2023/12/14 18:54:03;;;;;;;15.50;12.53;;;;;;;5.97;100.00;102347.06;5218271;28;20376;-73
2023/12/14 18:56:35;;;;;;;19.17;13.67;;;;;;;5.90;100.00;102361.06;5222012;28;20030;-71
2023/12/14 18:59:06;;;;;;;16.27;14.37;;;;;;;5.93;100.00;102361.84;5220060;28;20030;-73
2023/12/14 19:01:37;;;;;;;18.23;14.90;;;;;;;6.03;100.00;102364.31;5220828;28;20088;-72
2023/12/14 19:04:08;;;;;;;20.67;13.30;;;;;;;6.00;100.00;102370.44;5225567;28;20056;-72
2023/12/14 19:06:40;;;;;;;19.17;13.77;;;;;;;5.99;100.00;102373.03;5223032;28;20088;-71
2023/12/14 19:09:11;;;;;;;24.23;14.07;;;;;;;6.03;100.00;102374.72;5221290;28;20038;-71
2023/12/14 19:11:43;;;;;;;21.47;14.27;;;;;;;6.05;100.00;102371.28;5226977;28;20051;-71
2023/12/14 19:14:16;;;;;;;17.13;13.53;;;;;;;5.97;100.00;102375.69;5222246;28;20040;-71
2023/12/14 19:16:49;;;;;;;17.20;13.43;;;;;;;6.03;100.00;102375.59;5221521;28;20034;-72
2023/12/14 19:19:20;;;;;;;21.93;12.53;;;;;;;6.03;100.00;102382.53;5217781;28;20026;-71
2023/12/14 19:21:55;;;;;;;19.57;13.60;;;;;;;6.05;100.00;102391.22;5226870;28;20029;-74
2023/12/14 19:24:26;;;;;;;;;;;;;;;6.20;100.00;102384.03;5201679;28;20033;-70
2023/12/14 19:26:59;;;;;;;22.00;13.67;;;;;;;5.93;100.00;102385.25;5215447;28;19921;-71
2023/12/14 19:29:30;;;;;;;22.60;14.07;;;;;;;5.91;100.00;102394.84;5216995;28;20080;-71
2023/12/14 19:32:01;;;;;;;22.37;13.03;;;;;;;5.93;100.00;102397.44;5217353;28;20424;-72
2023/12/14 19:34:33;;;;;;;18.40;12.50;;;;;;;5.97;100.00;102409.47;5199617;28;20072;-71
2023/12/14 19:37:04;;;;;;;18.23;12.80;;;;;;;5.98;100.00;102408.63;5222488;28;20061;-72
2023/12/14 19:39:35;;;;;;;23.47;14.70;;;;;;;5.99;100.00;102410.31;5219648;28;20036;-73
2023/12/14 19:42:07;;;;;;;20.70;12.87;;;;;;;5.91;100.00;102407.00;5195629;28;20426;-71
2023/12/14 19:44:38;;;;;;;21.83;13.53;;;;;;;5.89;100.00;102404.41;5217286;28;20073;-70
2023/12/14 19:47:09;;;;;;;18.63;13.17;;;;;;;5.97;100.00;102422.50;5217759;28;20039;-71
2023/12/14 19:49:41;;;;;;;18.30;13.63;;;;;;;5.97;100.00;102422.50;5194582;28;20030;-72
2023/12/14 19:52:13;;;;;;;20.63;13.20;;;;;;;5.98;100.00;102425.97;5215863;28;20026;-72
2023/12/14 19:54:44;;;;;;;18.37;12.53;;;;;;;5.99;100.00;102430.25;5213832;28;20381;-71
2023/12/14 19:57:15;;;;;;;23.40;14.93;;;;;;;5.99;100.00;102431.13;5220414;28;20033;-73
2023/12/14 19:59:48;;;;;;;21.03;14.20;;;;;;;5.97;100.00;102430.28;5199031;28;20025;-73
2023/12/14 20:02:22;;;;;;;16.53;12.00;;;;;;;5.99;100.00;102435.47;5222125;28;20424;-73
2023/12/14 20:04:53;;;;;;;19.30;14.45;;;;;;;5.87;100.00;102420.91;5222819;28;20439;-74
2023/12/14 20:07:25;;;;;;;17.43;13.03;;;;;;;5.89;100.00;102434.75;5222932;28;20713;-72
2023/12/14 20:09:57;;;;;;;16.70;12.77;;;;;;;5.89;100.00;102442.56;5218236;28;20017;-73
2023/12/14 20:12:28;;;;;;;20.37;12.63;;;;;;;5.89;100.00;102445.16;5222731;28;20022;-72
2023/12/14 20:14:59;;;;;;;18.63;12.00;;;;;;;5.84;100.00;102452.16;5217129;28;20040;-76
2023/12/14 20:17:30;;;;;;;16.60;12.47;;;;;;;5.90;100.00;102447.72;5216843;28;20373;-73
2023/12/14 20:20:03;;;;;;;16.57;12.43;;;;;;;5.87;100.00;102446.91;5205193;28;20123;-73
2023/12/14 20:22:35;;;;;;;16.47;12.37;;;;;;;5.88;100.00;102453.84;5221482;28;20037;-75
2023/12/14 20:25:07;;;;;;;21.80;12.10;;;;;;;5.88;100.00;102464.25;5215546;28;20100;-75
2023/12/14 20:27:39;;;;;;;19.50;13.13;;;;;;;5.92;100.00;102463.31;5154135;28;20042;-73
2023/12/14 20:30:14;;;;;;;16.70;11.53;;;;;;;5.84;100.00;102457.34;5208271;28;20467;-74
2023/12/14 20:32:45;;;;;;;23.83;12.33;;;;;;;5.89;100.00;102468.56;5209288;28;20048;-73
2023/12/14 20:35:17;;;;;;;17.10;11.67;;;;;;;5.87;100.00;102467.72;5172084;28;20073;-74
2023/12/14 20:37:48;;;;;;;25.37;13.23;;;;;;;5.88;100.00;102472.06;5196534;28;20121;-74
2023/12/14 20:40:20;;;;;;;13.50;11.37;;;;;;;5.81;100.00;102469.50;5213236;28;20030;-73
2023/12/14 20:42:51;;;;;;;16.60;11.30;;;;;;;5.90;100.00;102471.13;5206426;28;20112;-73
2023/12/14 20:45:23;;;;;;;15.40;10.20;;;;;;;5.97;100.00;102484.91;5207446;28;20034;-72
2023/12/14 20:47:54;;;;;;;14.70;11.20;;;;;;;5.82;100.00;102475.59;5217352;28;20067;-74
2023/12/14 20:50:27;;;;;;;18.27;11.57;;;;;;;5.86;100.00;102486.81;5220284;28;20056;-75
2023/12/14 20:52:59;;;;;;;15.37;10.67;;;;;;;5.81;100.00;102484.28;5217717;28;20488;-74
2023/12/14 20:55:31;;;;;;;19.77;11.87;;;;;;;5.78;100.00;102486.91;5220858;28;20091;-73
2023/12/14 20:58:04;;;;;;;14.00;9.83;;;;;;;5.85;100.00;102490.31;5217590;28;20125;-74
2023/12/14 21:00:35;;;;;;;19.33;10.83;;;;;;;5.87;100.00;102502.38;5218390;28;20087;-74
2023/12/14 21:03:06;;;;;;;14.77;10.73;;;;;;;5.89;100.00;102503.22;5220256;28;20089;-74
2023/12/14 21:05:38;;;;;;;16.27;9.57;;;;;;;5.92;100.00;102507.50;5220149;28;20033;-75
2023/12/14 21:08:09;;;;;;;15.23;10.27;;;;;;;5.88;100.00;102511.91;5218394;28;20503;-75
2023/12/14 21:10:40;;;;;;;16.97;9.93;;;;;;;5.95;100.00;102504.03;5219283;28;20030;-73
2023/12/14 21:13:12;;;;;;;14.53;10.13;;;;;;;6.00;100.00;102515.22;5209083;28;20400;-75
2023/12/14 21:15:43;;;;;;;15.67;10.80;;;;;;;5.98;100.00;102523.06;5218082;28;20026;-74
2023/12/14 21:18:14;;;;;;;15.10;9.97;;;;;;;5.91;100.00;102519.69;5220354;28;20049;-75
2023/12/14 21:20:46;;;;;;;14.87;10.17;;;;;;;5.96;100.00;102530.00;5217544;28;20538;-74
2023/12/14 21:23:17;;;;;;;13.80;9.27;;;;;;;5.97;100.00;102534.31;5197733;28;20112;-74
2023/12/14 21:26:35;;;;;;;17.50;9.80;;;;;;;6.07;100.00;102534.25;5166104;28;20663;-74
2023/12/14 21:28:43;;;;;;;16.38;10.85;;;;;;;5.89;100.00;102526.63;5208846;28;20037;-74
2023/12/14 21:31:18;;;;;;;16.40;10.07;;;;;;;5.99;100.00;102522.16;5219671;28;20512;-74
2023/12/14 21:33:49;;;;;;;14.53;9.20;;;;;;;6.00;100.00;102526.50;5221684;28;20084;-74
2023/12/14 21:36:20;;;;;;;15.20;9.37;;;;;;;5.92;100.00;102512.72;5220468;28;20112;-73
2023/12/14 21:38:52;;;;;;;14.67;9.03;;;;;;;6.01;100.00;102527.34;5203052;28;20032;-73
2023/12/14 21:41:23;;;;;;;22.43;10.53;;;;;;;6.05;100.00;102527.34;5216273;28;20524;-73
2023/12/14 21:43:54;;;;;;;14.43;9.47;;;;;;;6.08;100.00;102526.41;5219276;28;20408;-73
2023/12/14 21:46:25;;;;;;;16.00;9.40;;;;;;;6.01;100.00;102520.41;5217450;28;20067;-73
2023/12/14 21:48:57;;;;;;;17.53;9.87;;;;;;;6.07;100.00;102518.63;5198903;28;20396;-74
2023/12/14 21:51:28;;;;;;;13.37;9.20;;;;;;;5.93;100.00;102514.47;5198183;28;20225;-73
2023/12/14 21:53:59;;;;;;;16.90;10.00;;;;;;;5.99;100.00;102527.38;5227428;28;20018;-73
2023/12/14 21:56:31;;;;;;;15.00;9.93;;;;;;;5.95;100.00;102519.63;5223760;28;20466;-74
2023/12/14 21:59:02;;;;;;;15.87;9.83;;;;;;;6.00;100.00;102523.03;5203753;28;20092;-72
2023/12/14 22:01:33;;;;;;;17.77;9.37;;;;;;;6.03;100.00;102516.06;5219371;28;20026;-74
2023/12/14 22:04:05;;;;;;;22.17;9.87;;;;;;;6.04;100.00;102527.28;5224666;28;20384;-77
2023/12/14 22:06:36;;;;;;;20.03;9.57;;;;;;;5.82;100.00;102501.59;5205073;28;20044;-76
2023/12/14 22:09:08;;;;;;;14.30;8.30;;;;;;;6.03;100.00;102518.66;5220190;28;20022;-75
2023/12/14 22:11:39;;;;;;;16.90;9.27;;;;;;;6.08;100.00;102520.34;5225308;28;20029;-77
2023/12/14 22:14:11;;;;;;;15.90;9.57;;;;;;;6.09;100.00;102520.31;5214467;28;20112;-77
2023/12/14 22:16:42;;;;;;;18.10;9.27;;;;;;;6.07;100.00;102526.44;5230060;28;20041;-77
2023/12/14 22:19:13;;;;;;;17.80;10.63;;;;;;;5.91;100.00;102508.41;5217487;28;20068;-79
2023/12/14 22:21:45;;;;;;;21.40;9.77;;;;;;;5.98;100.00;102517.84;5219826;28;20038;-78
2023/12/14 22:24:16;;;;;;;16.10;9.73;;;;;;;6.06;100.00;102533.38;5215670;28;20533;-78
2023/12/14 22:26:47;;;;;;;16.77;10.13;;;;;;;5.98;100.00;102532.59;5208169;28;20037;-80
2023/12/14 22:29:18;;;;;;;19.07;10.00;;;;;;;6.07;100.00;102552.44;5219827;28;20049;-82
2023/12/14 22:31:50;;;;;;;14.90;9.10;;;;;;;6.10;100.00;102562.81;5225307;28;20037;-81
2023/12/14 22:34:21;;;;;;;18.70;9.83;;;;;;;6.07;100.00;102562.84;5195416;28;20413;-81
2023/12/14 22:36:52;;;;;;;18.00;9.43;;;;;;;6.02;100.00;102550.72;5216864;28;20042;-77
2023/12/14 22:39:24;;;;;;;12.23;7.77;;;;;;;6.13;100.00;102560.16;5217619;28;20033;-76
2023/12/14 22:41:55;;;;;;;16.17;9.10;;;;;;;6.07;100.00;102553.31;5202783;28;20029;-79
2023/12/14 22:44:26;;;;;;;17.13;9.10;;;;;;;6.11;100.00;102564.56;5215436;28;20452;-76
2023/12/14 22:46:57;;;;;;;16.27;8.10;;;;;;;6.09;100.00;102561.94;5221579;28;20038;-76
2023/12/14 22:49:29;;;;;;;17.77;9.23;;;;;;;6.09;100.00;102568.91;5234368;28;20029;-76
